Dayville, OR (97825)

6:16 PM PST on December 10, 2016 (GMT -0800)
School | | Change Station

Elev 2448 ft 44.47 °N, 119.54 °W | Updated 9 seconds ago

Mostly Cloudy
Mostly Cloudy
32.4 °F
Feels Like 32 °F
N
1.0
Wind Variable Wind from North
Gusts 4.0 mph

Today
High -- | Low -- °F
--% Chance of Precip.
Yesterday
High -- | Low -- °F
Precip. -- in
Pressure 29.92 in
Visibility 10.0 miles
Clouds Mostly Cloudy 4100 ft
Mostly Cloudy 5000 ft
Overcast 6000 ft
Windchill 32 °F
Dew Point 28 °F
Humidity 83%
Rainfall 0.07 in
Snow Depth Not available.
7:24 AM 4:18 PM
Waxing Gibbous, 88% visible
METAR KGCD 110155Z AUTO 00000KT 10SM BKN041 BKN050 OVC060 02/00 A2992 RMK AO2 T00191005
Pressure 29.92 in
Visibility 10.0 miles
Clouds Mostly Cloudy 4100 ft
Mostly Cloudy 5000 ft
Overcast 6000 ft
Windchill 32 °F
Dew Point 28 °F
Humidity 83%
Rainfall 0.07 in
Snow Depth Not available.
7:24 AM 4:18 PM
Waxing Gibbous, 88% visible
METAR KGCD 110155Z AUTO 00000KT 10SM BKN041 BKN050 OVC060 02/00 A2992 RMK AO2 T00191005

10-Day Weather Forecast

Almanac

Astronomy

Dec. 10, 2016 Rise Set
Actual Time
Civil Twilight
Nautical Twilight
Astronomical Twilight
Moon
Length of Visible Light
Length of Day
Tomorrow will be .
, % of the Moon is Illuminated

Today's Extremes

State Highs State Lows

Community

WunderPhotos

Upload Photos

1,956,690 photos uploaded!

WunderBlog® & News

Nearby

Air Quality

  Air Quality AQ Index Pollutant
Not available.

Snow Depth

Station Depth Elevation

Earthquake Activity

City Distance Mag. Time & Date
Minimum magnitude displayed is 2.5.

Coastal Water Temperatures

Place Temperature

Stations

Nearby Weather Stations

Station Location Temp. Windchill Dew Point Humidity Wind Precip. Elev Updated Type
                   

Watches & Warnings

There are currently no watches in effect.